Time;durP1;ratioP1;P1;durP2;ratioP2;P2;SDS_P1;SDS_P2;PMS_P1;PMS_P2;Temp;Humidity;BMP_temperature;BMP_pressure;BME280_temperature;BME280_humidity;BME280_pressure;Samples;Min_cycle;Max_cycle;Signal;HPM_P1;HPM_P2
2021/11/03 00:04:56;;;;;;;28.20;11.63;;;;;;;9.75;100.00;100135.63;31575640;28;20048;-77
2021/11/03 00:20:01;;;;;;;29.87;13.50;;;;;;;9.75;100.00;100162.72;31579754;28;20183;-76
2021/11/03 00:35:03;;;;;;;38.13;15.50;;;;;;;9.69;100.00;100169.78;31589905;28;20052;-76
2021/11/03 00:50:06;;;;;;;32.33;14.50;;;;;;;9.68;100.00;100168.28;31581359;28;20051;-75
2021/11/03 01:05:16;;;;;;;26.83;13.30;;;;;;;9.68;100.00;100162.84;31601273;28;20051;-77
2021/11/03 01:20:18;;;;;;;37.53;14.90;;;;;;;9.59;100.00;100170.72;31568028;28;20416;-77
2021/11/03 01:35:21;;;;;;;27.63;13.80;;;;;;;9.46;100.00;100161.59;31575580;28;20396;-76
2021/11/03 01:50:47;;;;;;;31.77;14.40;;;;;;;9.51;100.00;100182.84;31573369;28;20056;-76
2021/11/03 02:05:56;;;;;;;34.35;13.23;;;;;;;9.47;100.00;100190.25;31573705;28;20382;-76
2021/11/03 02:20:58;;;;;;;30.60;12.43;;;;;;;9.48;100.00;100183.66;31578860;28;20083;-76
2021/11/03 02:36:07;;;;;;;28.83;12.53;;;;;;;9.47;100.00;100190.25;31576983;28;20050;-75
2021/11/03 02:51:22;;;;;;;28.33;11.93;;;;;;;9.41;100.00;100184.53;31583803;28;20055;-76
2021/11/03 03:06:28;;;;;;;30.93;13.17;;;;;;;9.32;100.00;100183.50;31589567;28;20174;-75
2021/11/03 03:21:35;;;;;;;35.40;12.90;;;;;;;9.35;100.00;100183.44;31566266;28;20050;-75
2021/11/03 03:36:38;;;;;;;32.70;15.33;;;;;;;9.36;100.00;100189.63;31591313;28;20123;-76
2021/11/03 03:51:45;;;;;;;34.30;13.80;;;;;;;9.30;100.00;100158.75;31590798;28;20439;-75
2021/11/03 04:06:51;;;;;;;26.50;13.93;;;;;;;9.37;100.00;100158.66;31572680;28;20714;-76
2021/11/03 04:21:56;;;;;;;29.03;15.63;;;;;;;9.32;100.00;100172.66;31589266;28;20626;-77
2021/11/03 04:36:58;;;;;;;37.23;15.23;;;;;;;9.27;100.00;100167.69;31602120;28;20072;-75
2021/11/03 04:52:01;;;;;;;31.23;15.30;;;;;;;9.24;100.00;100166.56;31557799;28;20054;-76
2021/11/03 05:07:04;;;;;;;27.20;13.47;;;;;;;9.27;100.00;100192.06;31549718;28;20059;-75
2021/11/03 05:22:09;;;;;;;28.47;14.20;;;;;;;9.33;100.00;100198.56;31559554;28;20139;-75
2021/11/03 05:37:14;;;;;;;28.87;13.90;;;;;;;9.43;100.00;100222.06;31554865;28;20045;-76
2021/11/03 05:52:16;;;;;;;23.60;11.47;;;;;;;9.55;100.00;100218.78;31572607;28;20134;-76
2021/11/03 06:07:22;;;;;;;27.30;12.93;;;;;;;9.69;100.00;100232.13;31581017;28;20438;-77
2021/11/03 06:22:26;;;;;;;22.57;11.57;;;;;;;9.84;100.00;100252.47;31587362;28;20504;-78
2021/11/03 06:37:28;;;;;;;27.30;12.90;;;;;;;9.97;100.00;100262.72;31605772;28;20036;-76
2021/11/03 06:52:31;;;;;;;26.27;11.80;;;;;;;10.04;100.00;100266.13;31601831;28;20060;-77
2021/11/03 07:07:33;;;;;;;22.33;12.23;;;;;;;10.18;100.00;100265.88;31594742;28;20056;-76
2021/11/03 07:22:42;;;;;;;28.10;13.50;;;;;;;10.24;100.00;100274.38;31608228;28;20694;-75
2021/11/03 07:37:44;;;;;;;28.10;12.53;;;;;;;10.37;100.00;100278.03;31604246;28;20409;-75
2021/11/03 07:52:49;;;;;;;27.00;12.27;;;;;;;10.58;100.00;100283.13;31594165;28;20417;-77
2021/11/03 08:07:52;;;;;;;31.80;11.93;;;;;;;10.74;100.00;100284.41;31532600;28;20090;-76
2021/11/03 08:22:55;;;;;;;24.60;11.80;;;;;;;10.88;100.00;100289.56;31583459;28;20066;-75
2021/11/03 08:38:02;;;;;;;23.00;11.40;;;;;;;11.02;100.00;100305.63;31534880;28;20049;-76
2021/11/03 08:53:05;;;;;;;30.10;13.87;;;;;;;11.16;100.00;100293.72;31567067;28;20052;-75
2021/11/03 09:08:12;;;;;;;18.43;8.53;;;;;;;11.19;100.00;100290.16;31554901;28;20048;-77
2021/11/03 09:23:18;;;;;;;;;;;;;;;11.17;100.00;100296.03;31593912;28;20502;-77
2021/11/03 09:38:23;;;;;;;18.37;9.30;;;;;;;11.16;100.00;100291.00;31579627;28;19919;-77
2021/11/03 09:53:33;;;;;;;19.87;9.30;;;;;;;11.22;100.00;100281.97;31556771;28;20060;-76
2021/11/03 10:08:43;;;;;;;14.23;7.93;;;;;;;11.25;100.00;100294.72;31554639;28;20513;-77
2021/11/03 10:23:56;;;;;;;17.37;8.87;;;;;;;11.32;100.00;100306.63;31549937;28;20052;-79
2021/11/03 10:39:06;;;;;;;21.93;11.53;;;;;;;11.36;100.00;100307.31;31571877;28;20046;-77
2021/11/03 10:54:19;;;;;;;21.03;10.80;;;;;;;11.40;100.00;100321.59;31562916;28;20139;-78
2021/11/03 11:09:31;;;;;;;19.10;9.07;;;;;;;11.41;100.00;100304.88;31577073;28;20044;-77
2021/11/03 11:24:48;;;;;;;20.17;9.97;;;;;;;11.45;100.00;100304.81;31574069;28;20496;-77
2021/11/03 11:40:12;;;;;;;17.63;8.50;;;;;;;11.49;100.00;100305.50;31570032;28;20075;-79
2021/11/03 11:55:14;;;;;;;16.50;9.00;;;;;;;11.54;100.00;100303.06;31581104;28;20055;-77
2021/11/03 12:10:28;;;;;;;19.00;8.53;;;;;;;11.57;100.00;100306.91;31593181;28;20060;-76
2021/11/03 12:25:39;;;;;;;21.67;10.40;;;;;;;11.62;100.00;100325.44;31587317;28;20131;-77
2021/11/03 12:40:45;;;;;;;20.73;10.57;;;;;;;11.69;100.00;100346.28;31537887;28;20052;-78
2021/11/03 12:55:56;;;;;;;21.60;11.33;;;;;;;11.72;100.00;100362.53;31558603;28;20461;-77
2021/11/03 13:11:33;;;;;;;21.23;10.00;;;;;;;11.75;100.00;100372.56;31594026;28;20863;-77
2021/11/03 13:26:37;;;;;;;19.73;11.00;;;;;;;11.77;100.00;100381.09;31542976;28;20054;-79
2021/11/03 13:41:43;;;;;;;22.60;12.20;;;;;;;11.82;100.00;100407.78;31547473;28;20062;-77
2021/11/03 13:56:53;;;;;;;40.10;22.53;;;;;;;11.86;100.00;100435.69;31584031;28;20055;-76
2021/11/03 14:12:00;;;;;;;31.07;16.90;;;;;;;11.88;100.00;100452.38;31565126;28;20505;-76
2021/11/03 14:27:03;;;;;;;32.73;17.70;;;;;;;11.87;100.00;100475.31;31605792;28;20056;-78
2021/11/03 14:42:07;;;;;;;30.03;13.93;;;;;;;11.91;100.00;100489.63;31619097;28;20050;-76
2021/11/03 14:57:10;;;;;;;28.43;13.87;;;;;;;11.94;100.00;100488.03;31611222;28;20055;-77
2021/11/03 15:12:15;;;;;;;26.97;12.40;;;;;;;11.93;100.00;100508.25;31622906;28;20044;-77
2021/11/03 15:27:18;;;;;;;30.73;14.07;;;;;;;11.93;100.00;100516.41;31622214;28;20456;-77
2021/11/03 15:42:26;;;;;;;30.33;13.43;;;;;;;11.97;100.00;100519.06;31594320;28;20052;-78
2021/11/03 15:57:35;;;;;;;30.93;14.83;;;;;;;11.99;100.00;100539.25;31595168;28;20047;-77
2021/11/03 16:12:37;;;;;;;35.17;15.47;;;;;;;12.05;100.00;100566.72;31618043;28;20058;-77
2021/11/03 16:27:40;;;;;;;40.17;16.77;;;;;;;12.07;100.00;100581.44;31606427;28;20056;-77
2021/11/03 16:42:45;;;;;;;40.37;18.47;;;;;;;12.09;100.00;100591.91;31605494;28;20055;-77
2021/11/03 16:57:49;;;;;;;42.83;18.97;;;;;;;12.09;100.00;100600.06;31581770;28;20163;-77
2021/11/03 17:12:56;;;;;;;46.37;19.27;;;;;;;12.07;100.00;100621.50;31581540;28;20109;-78
2021/11/03 17:28:32;;;;;;;48.77;20.80;;;;;;;11.98;100.00;100645.78;31601321;28;20044;-79
2021/11/03 17:43:38;;;;;;;44.67;18.63;;;;;;;11.90;100.00;100651.31;31576333;28;20059;-78
2021/11/03 17:58:44;;;;;;;58.93;20.67;;;;;;;11.83;100.00;100670.47;31584881;28;20508;-79
2021/11/03 18:13:55;;;;;;;57.03;21.43;;;;;;;11.82;100.00;100665.44;31614984;28;20104;-75
2021/11/03 18:29:02;;;;;;;76.67;31.47;;;;;;;11.83;100.00;100684.06;31597102;28;20052;-80
2021/11/03 18:44:23;;;;;;;66.93;22.20;;;;;;;11.83;100.00;100692.22;31620842;28;20058;-81
2021/11/03 18:59:27;;;;;;;63.13;21.70;;;;;;;11.82;100.00;100712.44;31591706;28;21126;-80
2021/11/03 19:14:33;;;;;;;72.03;27.03;;;;;;;11.78;100.00;100725.34;31612674;28;20058;-80
2021/11/03 19:29:35;;;;;;;77.87;36.30;;;;;;;11.76;100.00;100754.91;31608219;28;20131;-80
2021/11/03 19:44:37;;;;;;;70.57;27.57;;;;;;;11.63;100.00;100768.25;31594432;28;20059;-79
2021/11/03 19:59:39;;;;;;;78.67;33.37;;;;;;;11.46;100.00;100798.41;31614433;28;20060;-78
2021/11/03 20:14:42;;;;;;;82.63;23.77;;;;;;;11.34;100.00;100820.69;31590170;28;20493;-77
2021/11/03 20:30:04;;;;;;;147.67;23.47;;;;;;;11.15;100.00;100841.84;31601011;28;20139;-80
2021/11/03 20:45:11;;;;;;;160.60;23.50;;;;;;;11.09;100.00;100862.50;31583897;28;20044;-77
2021/11/03 21:00:20;;;;;;;144.23;22.10;;;;;;;11.06;100.00;100847.00;31587920;28;20138;-79
2021/11/03 21:15:22;;;;;;;77.43;30.33;;;;;;;10.99;100.00;100862.56;31601643;28;20048;-75
2021/11/03 21:30:34;;;;;;;77.60;27.27;;;;;;;11.05;100.00;100880.75;31604890;28;20134;-74
2021/11/03 21:45:36;;;;;;;103.40;23.83;;;;;;;11.02;100.00;100919.59;31578577;28;20048;-76
2021/11/03 22:00:41;;;;;;;93.37;25.80;;;;;;;10.91;100.00;100927.06;31590229;28;20412;-75
2021/11/03 22:15:46;;;;;;;58.03;20.40;;;;;;;10.79;100.00;100916.69;31589401;28;20048;-76
2021/11/03 22:30:51;;;;;;;61.93;24.03;;;;;;;10.82;100.00;100916.66;31592190;28;20036;-74
2021/11/03 22:45:55;;;;;;;81.87;31.60;;;;;;;10.85;100.00;100931.41;31592125;28;20044;-75
2021/11/03 23:00:59;;;;;;;78.07;25.43;;;;;;;10.89;100.00;100932.09;31612091;28;20416;-76
2021/11/03 23:16:01;;;;;;;77.30;22.70;;;;;;;10.82;100.00;100959.34;31615245;28;20059;-75
2021/11/03 23:31:10;;;;;;;79.20;25.90;;;;;;;10.71;100.00;100948.53;31606553;28;20056;-73
2021/11/03 23:46:11;;;;;;;68.20;17.80;;;;;;;10.72;100.00;100974.53;31589328;28;20048;-74
